createdAt,value
2022-12-26T00:01:26.886Z,100416.56
2022-12-26T00:03:58.162Z,100407.78
2022-12-26T00:06:28.026Z,100413.13
2022-12-26T00:08:56.439Z,100401.69
2022-12-26T00:11:26.571Z,100404.25
2022-12-26T00:13:56.278Z,100410.47
2022-12-26T00:16:24.788Z,100410.41
2022-12-26T00:18:53.652Z,100407.72
2022-12-26T00:21:23.820Z,100409.53
2022-12-26T00:23:51.797Z,100416.56
2022-12-26T00:26:24.094Z,100419.16
2022-12-26T00:28:54.349Z,100408.56
2022-12-26T00:31:25.152Z,100403.22
2022-12-26T00:33:53.858Z,100400.59
2022-12-26T00:36:26.001Z,100398.94
2022-12-26T00:38:54.107Z,100398.94
2022-12-26T00:41:23.041Z,100394.44
2022-12-26T00:43:51.572Z,100405.06
2022-12-26T00:46:20.472Z,100405.13
2022-12-26T00:48:49.042Z,100421.09
2022-12-26T00:51:17.167Z,100421.06
2022-12-26T00:53:46.774Z,100429.84
2022-12-26T00:56:15.728Z,100423.72
2022-12-26T00:58:44.095Z,100429.81
2022-12-26T01:01:16.095Z,100437.78
2022-12-26T01:03:45.411Z,100436.84
2022-12-26T01:06:14.025Z,100436.03
2022-12-26T01:08:42.408Z,100434.34
2022-12-26T01:11:14.642Z,100439.66
2022-12-26T01:13:43.444Z,100430.00
2022-12-26T01:16:11.966Z,100439.75
2022-12-26T01:18:39.952Z,100421.13
2022-12-26T01:21:11.571Z,100422.03
2022-12-26T01:23:39.608Z,100425.47
2022-12-26T01:26:17.015Z,100427.22
2022-12-26T01:28:50.402Z,100425.47
2022-12-26T01:31:19.518Z,100418.47
2022-12-26T01:33:47.984Z,100421.03
2022-12-26T01:36:16.958Z,100420.22
2022-12-26T01:38:45.313Z,100415.72
2022-12-26T01:41:20.992Z,100409.56
2022-12-26T01:43:55.919Z,100406.06
2022-12-26T01:46:29.474Z,100405.97
2022-12-26T01:48:59.776Z,100405.88
2022-12-26T01:51:32.577Z,100395.22
2022-12-26T01:54:40.501Z,100399.66
2022-12-26T01:56:52.741Z,100408.53
2022-12-26T01:59:26.078Z,100421.78
2022-12-26T02:01:56.365Z,100424.44
2022-12-26T02:04:46.363Z,100422.66
2022-12-26T02:07:14.916Z,100421.75
2022-12-26T02:09:43.429Z,100424.41
2022-12-26T02:12:34.892Z,100421.78
2022-12-26T02:15:09.161Z,100415.50
2022-12-26T02:17:38.641Z,100420.81
2022-12-26T02:20:17.506Z,100416.38
2022-12-26T02:23:33.510Z,100419.78
2022-12-26T02:26:49.001Z,100416.38
2022-12-26T02:29:50.810Z,100420.75
2022-12-26T02:32:27.941Z,100422.44
2022-12-26T02:35:07.828Z,100425.97
2022-12-26T02:37:49.891Z,100437.50
2022-12-26T02:40:31.303Z,100434.78
2022-12-26T02:43:04.095Z,100437.50
2022-12-26T02:45:58.034Z,100434.66
2022-12-26T02:48:36.381Z,100430.22
2022-12-26T02:51:34.862Z,100424.91
2022-12-26T02:54:33.574Z,100431.97
2022-12-26T02:57:38.594Z,100444.47
2022-12-26T03:00:27.013Z,100443.44
2022-12-26T03:03:17.557Z,100443.59
2022-12-26T03:06:09.166Z,100437.28
2022-12-26T03:08:59.801Z,100435.44
2022-12-26T03:11:51.113Z,100427.44
2022-12-26T03:14:24.022Z,100430.22
2022-12-26T03:17:16.947Z,100433.72
2022-12-26T03:20:00.418Z,100431.97
2022-12-26T03:22:35.575Z,100429.19
2022-12-26T03:25:24.539Z,100424.81
2022-12-26T03:27:53.852Z,100423.00
2022-12-26T03:30:39.678Z,100429.31
2022-12-26T03:33:28.553Z,100430.09
2022-12-26T03:35:55.729Z,100425.66
2022-12-26T03:38:35.343Z,100415.84
2022-12-26T03:41:24.844Z,100422.94
2022-12-26T03:44:38.583Z,100419.44
2022-12-26T03:47:36.140Z,100425.56
2022-12-26T03:50:28.936Z,100430.81
2022-12-26T03:53:22.082Z,100424.75
2022-12-26T03:56:15.283Z,100429.97
2022-12-26T03:59:08.969Z,100424.72
2022-12-26T04:01:58.320Z,100417.59
2022-12-26T04:04:46.924Z,100425.53
2022-12-26T04:07:38.221Z,100416.75
2022-12-26T04:10:45.997Z,100413.25
2022-12-26T04:13:38.583Z,100423.75
2022-12-26T04:16:33.248Z,100416.59
2022-12-26T04:19:26.008Z,100419.28
2022-12-26T04:22:20.333Z,100424.56
2022-12-26T04:25:15.414Z,100420.06
2022-12-26T04:28:01.543Z,100419.16
2022-12-26T04:30:52.959Z,100421.78
2022-12-26T04:33:43.995Z,100417.34
2022-12-26T04:36:34.600Z,100420.84
2022-12-26T04:39:27.295Z,100414.66
2022-12-26T04:42:16.482Z,100410.28
2022-12-26T04:44:45.701Z,100419.88
2022-12-26T04:47:15.176Z,100419.84
2022-12-26T04:50:01.799Z,100423.47
2022-12-26T04:52:50.378Z,100431.34
2022-12-26T04:55:19.152Z,100423.47
2022-12-26T04:57:47.168Z,100433.94
2022-12-26T05:00:16.039Z,100436.63
2022-12-26T05:03:03.134Z,100431.25
2022-12-26T05:05:58.205Z,100433.94
2022-12-26T05:08:57.865Z,100438.28
2022-12-26T05:11:26.102Z,100425.03
2022-12-26T05:13:55.270Z,100440.06
2022-12-26T05:16:41.437Z,100436.50
2022-12-26T05:19:30.410Z,100435.63
2022-12-26T05:22:16.815Z,100433.84
2022-12-26T05:25:03.422Z,100436.41
2022-12-26T05:27:53.984Z,100433.66
2022-12-26T05:30:22.580Z,100427.56
2022-12-26T05:33:08.102Z,100431.91
2022-12-26T05:35:37.653Z,100435.50
2022-12-26T05:38:06.064Z,100434.59
2022-12-26T05:40:34.094Z,100444.25
2022-12-26T05:43:02.067Z,100444.19
2022-12-26T05:45:30.084Z,100430.94
2022-12-26T05:48:00.229Z,100442.41
2022-12-26T05:50:28.624Z,100436.13
2022-12-26T05:52:59.691Z,100441.50
2022-12-26T05:55:27.848Z,100448.53
2022-12-26T05:57:55.951Z,100444.09
2022-12-26T06:00:23.926Z,100443.16
2022-12-26T06:02:52.079Z,100438.78
2022-12-26T06:05:20.307Z,100433.34
2022-12-26T06:07:48.267Z,100423.63
2022-12-26T06:10:18.008Z,100419.16
2022-12-26T06:12:46.013Z,100412.94
2022-12-26T06:15:13.991Z,100426.47
2022-12-26T06:17:41.999Z,100420.91
2022-12-26T06:20:10.685Z,100432.47
2022-12-26T06:22:39.160Z,100440.44
2022-12-26T06:25:08.435Z,100449.19
2022-12-26T06:27:37.751Z,100440.38
2022-12-26T06:30:07.357Z,100437.78
2022-12-26T06:32:35.429Z,100425.34
2022-12-26T06:35:03.429Z,100433.25
2022-12-26T06:37:31.419Z,100433.22
2022-12-26T06:39:59.431Z,100430.56
2022-12-26T06:42:27.457Z,100437.56
2022-12-26T06:44:56.730Z,100438.50
2022-12-26T06:47:24.746Z,100433.09
2022-12-26T06:49:52.684Z,100435.78
2022-12-26T06:52:20.635Z,100439.25
2022-12-26T06:54:48.703Z,100452.63
2022-12-26T06:57:16.703Z,100461.47
2022-12-26T06:59:44.731Z,100462.28
2022-12-26T07:02:14.239Z,100458.72
2022-12-26T07:04:42.312Z,100452.41
2022-12-26T07:07:10.296Z,100447.19
2022-12-26T07:09:38.276Z,100456.84
2022-12-26T07:12:06.716Z,100454.09
2022-12-26T07:14:34.657Z,100454.91
2022-12-26T07:17:02.735Z,100462.84
2022-12-26T07:19:33.914Z,100477.03
2022-12-26T07:22:01.950Z,100483.25
2022-12-26T07:24:30.093Z,100484.06
2022-12-26T07:26:58.065Z,100481.34
2022-12-26T07:29:26.592Z,100483.03
2022-12-26T07:31:54.589Z,100492.03
2022-12-26T07:34:27.858Z,100475.03
2022-12-26T07:37:00.485Z,100483.00
2022-12-26T07:39:28.510Z,100487.50
2022-12-26T07:41:59.223Z,100489.16
2022-12-26T07:44:28.265Z,100489.09
2022-12-26T07:46:57.070Z,100470.31
2022-12-26T07:49:25.042Z,100474.16
2022-12-26T07:51:53.277Z,100462.22
2022-12-26T07:54:22.768Z,100469.72
2022-12-26T07:56:50.716Z,100463.75
2022-12-26T07:59:19.420Z,100458.44
2022-12-26T08:01:47.790Z,100462.66
2022-12-26T08:04:16.070Z,100460.91
2022-12-26T08:06:44.050Z,100462.22
2022-12-26T08:09:15.847Z,100465.59
2022-12-26T08:11:45.548Z,100451.19
2022-12-26T08:14:16.711Z,100443.16
2022-12-26T08:16:51.179Z,100441.25
2022-12-26T08:19:21.155Z,100441.63
2022-12-26T08:21:49.191Z,100439.91
2022-12-26T08:24:17.238Z,100427.38
2022-12-26T08:26:46.581Z,100417.16
2022-12-26T08:29:14.635Z,100430.38
2022-12-26T08:31:42.839Z,100435.69
2022-12-26T08:34:10.895Z,100429.47
2022-12-26T08:36:39.436Z,100439.25
2022-12-26T08:39:07.430Z,100441.00
2022-12-26T08:41:35.432Z,100439.09
2022-12-26T08:46:52.811Z,100428.50
2022-12-26T08:49:20.794Z,100435.50
2022-12-26T08:51:48.875Z,100420.34
2022-12-26T08:54:16.852Z,100419.53
2022-12-26T08:56:44.871Z,100419.53
2022-12-26T08:59:14.713Z,100432.88
2022-12-26T09:01:42.819Z,100431.13
2022-12-26T09:04:10.888Z,100432.84
2022-12-26T09:06:40.741Z,100439.06
2022-12-26T09:09:12.623Z,100438.25
2022-12-26T09:11:42.040Z,100439.78
2022-12-26T09:14:11.296Z,100451.22
2022-12-26T09:16:49.747Z,100456.41
2022-12-26T09:19:19.632Z,100457.31
2022-12-26T09:21:49.074Z,100463.66
2022-12-26T09:24:19.568Z,100467.03
2022-12-26T09:26:47.863Z,100470.59
2022-12-26T09:29:18.218Z,100472.50
2022-12-26T09:31:50.581Z,100469.78
2022-12-26T09:34:18.807Z,100469.78
2022-12-26T09:36:46.935Z,100444.50
2022-12-26T09:39:14.973Z,100476.72
2022-12-26T09:41:59.550Z,100457.25
2022-12-26T09:44:38.023Z,100471.41
2022-12-26T09:47:22.632Z,100473.16
2022-12-26T09:49:56.460Z,100459.28
2022-12-26T09:52:28.837Z,100473.97
2022-12-26T09:55:00.181Z,100468.56
2022-12-26T09:57:36.773Z,100484.66
2022-12-26T10:00:08.137Z,100471.97
2022-12-26T10:02:40.563Z,100473.88
2022-12-26T10:05:09.601Z,100475.47
2022-12-26T10:07:43.620Z,100467.34
2022-12-26T10:10:13.277Z,100463.00
2022-12-26T10:12:52.432Z,100462.06
2022-12-26T10:15:32.166Z,100461.00
2022-12-26T10:18:14.410Z,100462.13
2022-12-26T10:21:03.839Z,100461.97
2022-12-26T10:23:34.232Z,100463.72
2022-12-26T10:26:10.569Z,100458.34
2022-12-26T10:28:43.080Z,100452.06
2022-12-26T10:31:18.192Z,100447.63
2022-12-26T10:33:54.583Z,100449.50
2022-12-26T10:36:35.879Z,100445.00
2022-12-26T10:39:07.081Z,100432.69
2022-12-26T10:41:41.186Z,100434.19
2022-12-26T10:44:12.593Z,100428.03
2022-12-26T10:47:13.452Z,100428.78
2022-12-26T10:49:45.524Z,100410.69
2022-12-26T10:52:13.864Z,100418.16
2022-12-26T10:54:42.197Z,100417.91
2022-12-26T10:57:11.321Z,100413.69
2022-12-26T10:59:43.631Z,100417.84
2022-12-26T11:02:26.197Z,100420.41
2022-12-26T11:08:06.375Z,100421.56
2022-12-26T11:10:34.560Z,100419.81
2022-12-26T11:13:08.216Z,100413.69
2022-12-26T11:15:42.172Z,100411.94
2022-12-26T11:18:18.786Z,100405.25
2022-12-26T11:20:49.473Z,100403.91
2022-12-26T11:23:25.733Z,100403.78
2022-12-26T11:25:55.026Z,100395.06
2022-12-26T11:28:32.574Z,100389.81
2022-12-26T11:31:01.864Z,100383.44
2022-12-26T11:33:32.368Z,100380.91
2022-12-26T11:36:18.086Z,100381.09
2022-12-26T11:38:52.350Z,100378.13
2022-12-26T11:41:39.693Z,100379.88
2022-12-26T11:44:22.683Z,100383.56
2022-12-26T11:46:54.439Z,100377.56
2022-12-26T11:49:27.406Z,100378.44
2022-12-26T11:51:59.785Z,100361.66
2022-12-26T11:54:48.287Z,100362.47
2022-12-26T11:57:22.170Z,100351.88
2022-12-26T11:59:52.702Z,100360.56
2022-12-26T12:02:27.352Z,100354.47
2022-12-26T12:04:59.952Z,100355.34
2022-12-26T12:07:42.390Z,100348.34
2022-12-26T12:10:39.222Z,100343.88
2022-12-26T12:13:13.907Z,100346.88
2022-12-26T12:15:47.179Z,100338.03
2022-12-26T12:18:23.585Z,100331.78
2022-12-26T12:21:03.600Z,100331.78
2022-12-26T12:23:51.643Z,100328.97
2022-12-26T12:26:27.744Z,100336.91
2022-12-26T12:29:14.376Z,100340.41
2022-12-26T12:31:54.682Z,100331.63
2022-12-26T12:34:32.972Z,100335.03
2022-12-26T12:37:12.519Z,100334.88
2022-12-26T12:39:53.190Z,100337.69
2022-12-26T12:42:32.686Z,100340.25
2022-12-26T12:45:21.359Z,100338.59
2022-12-26T12:48:00.942Z,100332.50
2022-12-26T12:50:37.410Z,100319.34
2022-12-26T12:53:18.362Z,100323.53
2022-12-26T12:56:00.543Z,100324.22
2022-12-26T12:58:37.173Z,100316.19
2022-12-26T13:01:09.118Z,100314.53
2022-12-26T13:03:43.424Z,100328.38
2022-12-26T13:06:15.824Z,100320.28
2022-12-26T13:08:47.941Z,100330.97
2022-12-26T13:11:23.535Z,100371.19
2022-12-26T13:13:55.929Z,100345.38
2022-12-26T13:16:26.754Z,100376.69
2022-12-26T13:18:59.534Z,100361.50
2022-12-26T13:21:30.327Z,100368.53
2022-12-26T13:24:22.599Z,100353.25
2022-12-26T13:26:59.057Z,100379.75
2022-12-26T13:29:48.733Z,100378.09
2022-12-26T13:32:22.789Z,100392.28
2022-12-26T13:34:52.746Z,100389.16
2022-12-26T13:37:57.488Z,100403.25
2022-12-26T13:40:30.177Z,100429.38
2022-12-26T13:43:25.752Z,100430.41
2022-12-26T13:45:57.299Z,100453.81
2022-12-26T13:48:57.670Z,100483.41
2022-12-26T13:51:49.260Z,100458.91
2022-12-26T13:54:18.397Z,100475.78
2022-12-26T13:57:30.868Z,100483.31
2022-12-26T14:00:14.946Z,100504.28
2022-12-26T14:03:24.392Z,100493.00
2022-12-26T14:06:19.746Z,100508.50
2022-12-26T14:09:09.282Z,100512.69
2022-12-26T14:11:49.661Z,100509.38
2022-12-26T14:14:29.308Z,100515.75
2022-12-26T14:17:08.823Z,100522.78
2022-12-26T14:19:47.499Z,100532.59
2022-12-26T14:22:24.075Z,100539.13
2022-12-26T14:25:05.078Z,100543.78
2022-12-26T14:27:41.941Z,100561.53
2022-12-26T14:30:24.039Z,100569.06
2022-12-26T14:33:10.060Z,100578.00
2022-12-26T14:35:45.395Z,100577.81
2022-12-26T14:38:27.240Z,100589.63
2022-12-26T14:41:01.074Z,100586.09
2022-12-26T14:43:38.361Z,100595.03
2022-12-26T14:46:30.746Z,100610.97
2022-12-26T14:49:14.499Z,100634.28
2022-12-26T14:51:42.668Z,100631.81
2022-12-26T14:54:30.833Z,100636.16
2022-12-26T14:56:59.473Z,100642.44
2022-12-26T14:59:30.616Z,100633.69
2022-12-26T15:02:09.845Z,100644.28
2022-12-26T15:04:58.888Z,100670.97
2022-12-26T15:07:56.841Z,100671.19
2022-12-26T15:10:45.752Z,100675.75
2022-12-26T15:14:07.183Z,100666.06
2022-12-26T15:16:48.645Z,100676.72
2022-12-26T15:20:02.413Z,100685.59
2022-12-26T15:22:53.203Z,100683.84
2022-12-26T15:25:48.833Z,100712.09
2022-12-26T15:28:40.106Z,100707.72
2022-12-26T15:31:31.804Z,100699.72
2022-12-26T15:34:06.223Z,100710.31
2022-12-26T15:36:45.221Z,100704.00
2022-12-26T15:39:27.352Z,100701.34
2022-12-26T15:42:14.496Z,100700.53
2022-12-26T15:44:51.892Z,100705.81
2022-12-26T15:47:30.527Z,100720.81
2022-12-26T15:50:12.288Z,100732.41
2022-12-26T15:52:51.772Z,100728.84
2022-12-26T15:55:35.536Z,100728.97
2022-12-26T15:58:12.132Z,100728.91
2022-12-26T16:00:50.225Z,100727.22
2022-12-26T16:03:27.768Z,100740.41
2022-12-26T16:06:01.867Z,100735.16
2022-12-26T16:09:07.154Z,100735.13
2022-12-26T16:11:51.051Z,100743.91
2022-12-26T16:14:29.036Z,100748.38
2022-12-26T16:17:11.603Z,100750.19
2022-12-26T16:19:40.884Z,100763.50
2022-12-26T16:22:31.914Z,100763.47
2022-12-26T16:25:01.046Z,100767.09
2022-12-26T16:27:31.304Z,100763.59
2022-12-26T16:30:09.729Z,100772.44
2022-12-26T16:32:42.403Z,100767.16
2022-12-26T16:35:19.308Z,100772.44
2022-12-26T16:37:48.033Z,100779.50
2022-12-26T16:40:24.723Z,100787.53
2022-12-26T16:43:00.207Z,100786.66
2022-12-26T16:45:31.263Z,100784.91
2022-12-26T16:47:59.707Z,100776.03
2022-12-26T16:50:30.330Z,100791.00
2022-12-26T16:53:20.149Z,100787.53
2022-12-26T16:55:51.985Z,100785.69
2022-12-26T16:58:27.709Z,100786.63
2022-12-26T17:01:03.797Z,100787.50
2022-12-26T17:03:39.036Z,100785.75
2022-12-26T17:06:10.078Z,100796.38
2022-12-26T17:08:43.576Z,100796.31
2022-12-26T17:11:11.671Z,100795.44
2022-12-26T17:13:41.639Z,100793.69
2022-12-26T17:16:11.292Z,100812.19
2022-12-26T17:18:47.148Z,100804.22
2022-12-26T17:21:22.472Z,100828.03
2022-12-26T17:24:12.486Z,100831.56
2022-12-26T17:26:42.032Z,100834.19
2022-12-26T17:29:49.807Z,100821.78
2022-12-26T17:32:26.815Z,100821.88
2022-12-26T17:34:55.029Z,100826.31
2022-12-26T17:37:25.458Z,100834.22
2022-12-26T17:40:02.401Z,100829.81
2022-12-26T17:42:31.983Z,100829.81
2022-12-26T17:45:01.351Z,100823.66
2022-12-26T17:47:30.024Z,100824.59
2022-12-26T17:49:58.552Z,100814.09
2022-12-26T17:52:29.724Z,100822.84
2022-12-26T17:54:59.311Z,100822.84
2022-12-26T17:57:29.616Z,100823.78
2022-12-26T17:59:58.064Z,100822.03
2022-12-26T18:02:27.511Z,100817.63
2022-12-26T18:04:55.949Z,100822.91
2022-12-26T18:07:31.117Z,100829.09
2022-12-26T18:10:00.226Z,100829.97
2022-12-26T18:12:28.315Z,100832.63
2022-12-26T18:15:01.643Z,100834.38
2022-12-26T18:17:34.296Z,100836.13
2022-12-26T18:20:02.777Z,100841.44
2022-12-26T18:22:30.880Z,100853.81
2022-12-26T18:24:59.230Z,100841.47
2022-12-26T18:27:31.347Z,100850.34
2022-12-26T18:29:59.967Z,100857.38
2022-12-26T18:32:30.492Z,100862.66
2022-12-26T18:35:00.655Z,100859.22
2022-12-26T18:37:30.705Z,100850.38
2022-12-26T18:39:58.729Z,100842.47
2022-12-26T18:42:27.370Z,100861.88
2022-12-26T18:44:55.540Z,100855.72
2022-12-26T18:47:24.049Z,100864.53
2022-12-26T18:49:52.178Z,100873.31
2022-12-26T18:52:21.623Z,100877.75
2022-12-26T18:54:49.906Z,100881.25
2022-12-26T18:57:21.235Z,100885.69
2022-12-26T18:59:49.423Z,100888.28
2022-12-26T19:02:19.165Z,100896.25
2022-12-26T19:04:48.967Z,100887.47
2022-12-26T19:07:20.233Z,100897.13
2022-12-26T19:09:51.239Z,100897.16
2022-12-26T19:12:19.268Z,100904.19
2022-12-26T19:14:47.676Z,100910.34
2022-12-26T19:17:16.715Z,100915.63
2022-12-26T19:19:45.038Z,100923.56
2022-12-26T19:22:13.071Z,100915.63
2022-12-26T19:24:41.028Z,100914.75
2022-12-26T19:27:10.350Z,100914.78
2022-12-26T19:29:38.617Z,100910.38
2022-12-26T19:32:06.793Z,100913.88
2022-12-26T19:34:34.871Z,100912.16
2022-12-26T19:37:03.544Z,100913.88
2022-12-26T19:39:31.499Z,100913.03
2022-12-26T19:41:59.584Z,100917.44
2022-12-26T19:44:30.028Z,100929.75
2022-12-26T19:47:12.139Z,100915.69
2022-12-26T19:49:41.260Z,100921.84
2022-12-26T19:52:09.408Z,100927.13
2022-12-26T19:54:37.431Z,100935.06
2022-12-26T19:57:06.220Z,100940.31
2022-12-26T19:59:36.035Z,100935.06
2022-12-26T20:02:04.505Z,100942.13
2022-12-26T20:04:32.801Z,100935.94
2022-12-26T20:07:01.626Z,100944.75
2022-12-26T20:09:29.850Z,100948.28
2022-12-26T20:11:58.082Z,100957.09
2022-12-26T20:14:27.569Z,100966.78
2022-12-26T20:17:07.623Z,100966.75
2022-12-26T20:19:37.114Z,100970.28
2022-12-26T20:22:06.041Z,100965.03
2022-12-26T20:24:34.560Z,100945.66
2022-12-26T20:27:03.157Z,100974.69
2022-12-26T20:29:31.380Z,100974.69
2022-12-26T20:32:01.601Z,100977.34
2022-12-26T20:34:30.642Z,100975.56
2022-12-26T20:36:58.993Z,100982.63
2022-12-26T20:39:27.281Z,100987.91
2022-12-26T20:41:55.465Z,100993.19
2022-12-26T20:44:24.408Z,100988.78
2022-12-26T20:46:52.412Z,100990.53
2022-12-26T20:49:21.792Z,100989.66
2022-12-26T20:51:49.882Z,100979.97
2022-12-26T20:54:18.273Z,100994.94
2022-12-26T20:56:46.680Z,100989.66
2022-12-26T20:59:14.773Z,100968.53
2022-12-26T21:01:43.083Z,101000.22
2022-12-26T21:04:17.785Z,101000.22
2022-12-26T21:06:47.699Z,101018.72
2022-12-26T21:09:16.081Z,101009.91
2022-12-26T21:11:45.545Z,101013.44
2022-12-26T21:14:16.171Z,101022.22
2022-12-26T21:16:46.214Z,101018.69
2022-12-26T21:19:15.718Z,101028.41
2022-12-26T21:21:45.595Z,101026.63
2022-12-26T21:24:20.361Z,101025.75
2022-12-26T21:26:48.758Z,101033.66
2022-12-26T21:29:18.832Z,101027.50
2022-12-26T21:31:47.488Z,101030.13
2022-12-26T21:34:17.341Z,101029.28
2022-12-26T21:37:07.168Z,101038.94
2022-12-26T21:39:38.172Z,101038.94
2022-12-26T21:42:07.477Z,101038.09
2022-12-26T21:44:36.717Z,101030.16
2022-12-26T21:47:05.472Z,101050.41
2022-12-26T21:49:33.462Z,101054.81
2022-12-26T21:52:01.482Z,101045.13
2022-12-26T21:54:49.391Z,101063.63
2022-12-26T21:57:19.866Z,101060.94
2022-12-26T21:59:57.168Z,101066.25
2022-12-26T22:02:44.229Z,101070.63
2022-12-26T22:05:12.955Z,101070.63
2022-12-26T22:07:40.963Z,101065.38
2022-12-26T22:10:30.209Z,101065.38
2022-12-26T22:12:58.984Z,101072.38
2022-12-26T22:15:44.680Z,101066.22
2022-12-26T22:18:12.983Z,101073.25
2022-12-26T22:20:41.419Z,101074.16
2022-12-26T22:23:09.529Z,101071.47
2022-12-26T22:25:37.533Z,101075.88
2022-12-26T22:28:06.924Z,101088.19
2022-12-26T22:30:34.978Z,101082.94
2022-12-26T22:33:02.961Z,101080.31
2022-12-26T22:35:30.896Z,101086.44
2022-12-26T22:37:58.879Z,101090.84
2022-12-26T22:40:26.840Z,101101.38
2022-12-26T22:42:54.789Z,101108.44
2022-12-26T22:45:24.133Z,101112.84
2022-12-26T22:47:52.246Z,101111.94
2022-12-26T22:50:20.332Z,101108.44
2022-12-26T22:52:48.347Z,101111.06
2022-12-26T22:55:16.405Z,101113.69
2022-12-26T22:57:48.164Z,101113.69
2022-12-26T23:00:19.219Z,101122.47
2022-12-26T23:02:48.766Z,101126.88
2022-12-26T23:05:17.447Z,101125.13
2022-12-26T23:07:46.051Z,101117.19
2022-12-26T23:10:19.562Z,101118.94
2022-12-26T23:12:48.192Z,101125.97
2022-12-26T23:15:19.125Z,101128.63
2022-12-26T23:18:09.783Z,101128.59
2022-12-26T23:20:56.352Z,101131.22
2022-12-26T23:23:24.857Z,101125.06
2022-12-26T23:25:52.919Z,101125.09
2022-12-26T23:28:38.350Z,101118.91
2022-12-26T23:31:06.336Z,101130.38
2022-12-26T23:33:35.702Z,101130.31
2022-12-26T23:36:03.805Z,101136.47
2022-12-26T23:38:31.885Z,101137.34
2022-12-26T23:40:59.884Z,101129.44
2022-12-26T23:43:28.051Z,101133.88
2022-12-26T23:45:56.066Z,101130.31
2022-12-26T23:48:24.081Z,101131.22
2022-12-26T23:51:02.160Z,101124.13
2022-12-26T23:53:30.397Z,101126.75
2022-12-26T23:55:58.577Z,101129.38
2022-12-26T23:58:26.957Z,101125.03
